Startpagina
METAR-TAF:

METAR-TAF

Vliegvelden :

Novosibirsk, Rusland

Luchthaven Tolmatsjovo

breedte: 55-01N, lengte: 082-38E, hoogte: 111 m

Actueel weer

Dit bericht is 48 minuten geleden gemaakt, om 08:00 UTC
Wind 6 kt uit het noordwesten, variërend tussen het westen en het noorden
Temperatuur 23°C
Vochtigheid 53%
Druk 1013 hPa
Zicht 10 km of meer
Gebroken wolken op 4800 ft

METAR: UNNT 280800Z 32003MPS 280V360 9999 BKN048 23/13 Q1013 R25/090070 R16/090070 NOSIG RMK QFE750/1000

Tijdstip: 15:48 (08:48 UTC)

Verwachting

Dit bericht is 48 minuten geleden gemaakt, om 08:00 UTC
Verwachting geldig van 28 om 09 UTC tot 29 om 09 UTC
Wind 6 kt uit het westnoordwesten met uitschieters tot 16 kt
Zicht 10 km of meer
Verspreide wolken op 3000 ft
Van 28 om 1200 UTC
Wind 2 kt uit variabele richting
Zicht 10 km of meer
geen wolken onder 1500 m en geen cumulonimbus

TAF: UNNT 280800Z 2809/2909 30003G08MPS 9999 SCT030 FM281200 VRB01MPS CAVOK

Waarnemingen en weersverwachtingen van meer dan 4000 vliegvelden (METAR en TAF).

De beschikbare stations zijn de gele en rode punten op de kaart.

Ga met uw muis naar het station om de naam te zien.

Klik dan om waarnemingen en weersverwachtingen te zien.

kaart wijzigen: klik op de groene knoppen met een zwart kruis om in te zoomen, op de groene knop met een streepje om uit te zoomen of op de groene pijlen voor aangrenzende kaarten.


METAR-TAF: